Flight Track Log - Related Links

Times and Time Zones

All times are in EDT time to prevent confusion due to time zone crossing. See the SWA208 flight status page for this flight to view local times or setup timezone preferences in your user account.

Time Position Orientation Groundspeed Altitude Reporting Facility
EDT Latitude Longitude Course Direction KTS MPH feet Rate Location/Type
Wed 11:04:35 PM 33.6500 -117.8833 199° South 140 161 2,000  Level Southern California TRACON
Wed 11:05:40 PM 33.6108 -117.8994 199° South 152 175 3,100 1,984 Climbing Los Angeles Center
Wed 11:06:42 PM 33.5583 -117.9242 201° Southwest 195 224 6,200 2,927 Climbing Los Angeles Center
Wed 11:07:43 PM 33.5089 -117.9664 215° Southwest 252 290 9,100 2,098 Climbing Los Angeles Center
Wed 11:08:45 PM 33.4081 -118.0536 216° Southwest 311 358 10,500 2,806 Climbing Los Angeles Center
Wed 11:09:47 PM 33.3408 -118.1342 225° Southwest 341 392 14,900 4,065 Climbing Los Angeles Center
Wed 11:10:49 PM 33.3636 -118.2475 284° West 354 407 18,900 3,366 Climbing Los Angeles Center
Wed 11:11:50 PM 33.4192 -118.3203 312° West 369 425 21,800 3,366 Climbing Los Angeles Center
Wed 11:12:52 PM 33.5064 -118.4364 312° West 385 443 25,800 3,290 Climbing Los Angeles Center
Wed 11:13:54 PM 33.5844 -118.5389 312° West 405 466 28,600 2,537 Climbing Los Angeles Center
Wed 11:14:55 PM 33.6661 -118.6461 312° West 426 490 31,000 2,613 Climbing Los Angeles Center
Wed 11:15:58 PM 33.7475 -118.7533 312° West 430 495 34,000 2,516 Climbing Los Angeles Center
Wed 11:16:59 PM 33.8189 -118.8661 307° West 435 501 36,200 1,967 Climbing Los Angeles Center
Wed 11:18:00 PM 33.8253 -119.0086 273° West 430 495 38,000 878 Climbing Los Angeles Center
Wed 11:19:02 PM 33.8303 -119.1822 272° West 433 498 38,000  Level Los Angeles Center
Wed 11:20:04 PM 33.8356 -119.3250 273° West 429 494 38,000 919 Level Los Angeles Center
Wed 11:21:06 PM 33.8667 -119.4589 286° West 427 491 39,900 976 Climbing Los Angeles Center
Wed 11:22:07 PM 33.9617 -119.5464 323° Northwest 432 497 40,000 49 Climbing Los Angeles Center
Wed 11:23:09 PM 34.0597 -119.6347 323° Northwest 438 504 40,000  Level Los Angeles Center
Wed 11:24:23 PM 34.1567 -119.7247 322° Northwest 438 504 40,000  Level Los Angeles Center
Wed 11:25:25 PM 34.2736 -119.8317 323° Northwest 437 503 40,000  Level Los Angeles Center
Wed 11:26:27 PM 34.3903 -119.9386 323° Northwest 440 506 40,000  Level Los Angeles Center
Wed 11:27:28 PM 34.4875 -120.0272 323° Northwest 438 504 40,000  Level Los Angeles Center
Wed 11:28:30 PM 34.5864 -120.1186 323° Northwest 432 497 40,000  Level Los Angeles Center
Wed 11:29:32 PM 34.6736 -120.1981 323° Northwest 430 495 40,000  Level Los Angeles Center
Wed 11:30:34 PM 34.7658 -120.2853 322° Northwest 428 493 40,000  Level Los Angeles Center
Wed 11:31:36 PM 34.8758 -120.3892 322° Northwest 423 487 40,000  Level Los Angeles Center
Wed 11:32:37 PM 34.9678 -120.4761 322° Northwest 423 487 40,000  Level Los Angeles Center
Wed 11:33:39 PM 35.0589 -120.5628 322° Northwest 421 484 40,000  Level Los Angeles Center
Wed 11:34:41 PM 35.1517 -120.6497 323° Northwest 423 487 40,000  Level Los Angeles Center
Wed 11:35:43 PM 35.2425 -120.7358 322° Northwest 416 479 40,000  Level Los Angeles Center
Wed 11:36:45 PM 35.3536 -120.8414 322° Northwest 420 483 40,000 -774 Level Los Angeles Center
Wed 11:37:47 PM 35.4467 -120.9239 324° Northwest 420 483 38,400 -976 Descending Oakland Center
Wed 11:38:48 PM 35.5442 -120.9986 328° Northwest 414 476 38,000 -197 Descending Oakland Center
Wed 11:39:49 PM 35.6392 -121.0750 327° Northwest 410 472 38,000  Level Oakland Center
Wed 11:40:50 PM 35.7361 -121.1514 327° Northwest 413 475 38,000  Level Oakland Center
Wed 11:41:51 PM 35.8314 -121.2289 327° Northwest 410 472 38,000  Level Oakland Center
Wed 11:42:52 PM 35.9278 -121.3067 327° Northwest 414 476 38,000  Level Oakland Center
Wed 11:43:53 PM 36.0256 -121.3797 329° Northwest 419 482 38,000 -738 Level Oakland Center
Wed 11:44:54 PM 36.1192 -121.4569 326° Northwest 411 473 36,500 -2,311 Descending Oakland Center
Wed 11:45:55 PM 36.2200 -121.5333 329° Northwest 424 488 33,300 -3,098 Descending Oakland Center
Wed 11:46:56 PM 36.3144 -121.6131 326° Northwest 415 478 30,200 -3,000 Descending Oakland Center
Wed 11:47:57 PM 36.4261 -121.7056 326° Northwest 404 465 27,200 -2,705 Descending Oakland Center
Wed 11:48:58 PM 36.5183 -121.7764 328° Northwest 393 452 24,700 -2,468 Descending Oakland Center
Wed 11:50:01 PM 36.6167 -121.8500 329° Northwest 377 434 22,100 -2,439 Descending Northern Cal TRACON
Wed 11:51:01 PM 36.7000 -121.9167 327° Northwest 366 421 19,700 -2,256 Descending Northern Cal TRACON
Wed 11:52:06 PM 36.8000 -121.9833 332° Northwest 356 410 17,400 -2,300 Descending Northern Cal TRACON
Wed 11:53:01 PM 36.8833 -122.0000 351° North 356 410 15,100 -2,462 Descending Northern Cal TRACON
Wed 11:54:03 PM 36.9747 -122.0244 348° North 352 405 12,600 -1,805 Descending Oakland Center
Wed 11:55:04 PM 37.0653 -122.0483 348° North 334 384 11,400 -1,033 Descending Oakland Center
Wed 11:56:05 PM 37.1431 -122.0717 347° North 294 338 10,500 -738 Descending Oakland Center
Wed 11:57:06 PM 37.1700 -122.1664 290° West 297 342 9,900 -246 Descending Oakland Center
Wed 11:58:07 PM 37.1922 -122.2631 286° West 291 335 10,000 49 Climbing Oakland Center
Wed 11:59:08 PM 37.2133 -122.3606 285° West 289 333 10,000 -639 Level Oakland Center
Thu 12:00:09 AM 37.2364 -122.4536 287° West 282 325 8,700 -984 Descending Oakland Center
Thu 12:01:10 AM 37.3050 -122.4714 348° North 269 310 8,000 -639 Descending Oakland Center
Thu 12:02:11 AM 37.3700 -122.4644 North 242 278 7,400 -541 Descending Oakland Center
Thu 12:03:12 AM 37.3975 -122.4078 59° Northeast 202 232 6,900 -639 Descending Oakland Center
Thu 12:04:13 AM 37.3928 -122.3428 95° East 191 220 6,100 -492 Descending Oakland Center
Thu 12:05:14 AM 37.3892 -122.2764 94° East 190 219 5,900 -295 Descending Oakland Center
Thu 12:06:15 AM 37.4072 -122.2139 70° East 197 227 5,500 -689 Descending Oakland Center
Thu 12:07:16 AM 37.4506 -122.1858 27° Northeast 206 237 4,500 -1,131 Descending Oakland Center
Thu 12:08:17 AM 37.5014 -122.1950 352° North 191 220 3,200 -1,033 Descending Oakland Center
Thu 12:09:18 AM 37.5492 -122.2119 344° North 188 216 2,400 -885 Descending Oakland Center
Thu 12:10:19 AM 37.5736 -122.2725 297° West 192 221 1,400 -885 Descending Oakland Center
Thu 12:11:20 AM 37.5922 -122.3192 297° West 170 196 600 -590 Descending Oakland Center
Thu 12:12:21 AM 37.6097 -122.3553 301° West 143 165 200 -393 Descending Oakland Center

Login

Don't have an account? Register now (free) for customized features, flight alerts, and more!